createdAt,value
2017-02-16T00:36:28.738Z,0
2017-02-16T00:37:17.296Z,0
2017-02-16T00:38:05.627Z,0
2017-02-16T00:38:54.139Z,0
2017-02-16T00:39:42.738Z,0
2017-02-16T00:40:31.517Z,0
2017-02-16T00:41:20.025Z,0
2017-02-16T00:42:08.691Z,0
2017-02-16T00:42:57.374Z,0
2017-02-16T00:43:45.628Z,0
2017-02-16T00:44:34.230Z,0
2017-02-16T00:45:22.768Z,0
2017-02-16T00:46:05.789Z,0
2017-02-16T00:46:46.871Z,0
2017-02-16T00:47:27.270Z,0
2017-02-16T01:32:00.261Z,0
2017-02-16T01:32:49.080Z,0
2017-02-16T01:33:37.665Z,0
2017-02-16T01:34:26.276Z,0
2017-02-16T01:35:14.799Z,0
2017-02-16T01:36:03.453Z,0
2017-02-16T01:36:52.122Z,0
2017-02-16T01:37:41.123Z,0
2017-02-16T01:38:29.501Z,0
2017-02-16T01:39:18.634Z,0
2017-02-16T01:40:07.757Z,0
2017-02-16T01:40:55.773Z,0
2017-02-16T01:41:44.600Z,0
2017-02-16T01:42:32.789Z,0
2017-02-16T01:43:21.604Z,0
2017-02-16T01:44:10.283Z,0
2017-02-16T01:44:59.363Z,0
2017-02-16T01:45:48.500Z,0
2017-02-16T01:46:37.846Z,0
2017-02-16T01:47:25.786Z,0
2017-02-16T01:48:14.695Z,0
2017-02-16T01:49:02.995Z,0
2017-02-16T01:49:51.814Z,0
2017-02-16T01:50:40.414Z,0
2017-02-16T01:51:28.757Z,0
2017-02-16T01:52:17.583Z,0
2017-02-16T01:53:06.925Z,0
2017-02-16T01:53:55.696Z,0
2017-02-16T01:54:44.604Z,0
2017-02-16T01:55:32.974Z,0
2017-02-16T01:56:21.727Z,0
2017-02-16T01:57:10.433Z,0
2017-02-16T01:57:58.916Z,0
2017-02-16T01:58:47.462Z,0
2017-02-16T01:59:36.665Z,0
2017-02-16T02:00:24.927Z,0
2017-02-16T02:01:13.857Z,0
2017-02-16T02:02:02.322Z,0
2017-02-16T02:02:51.120Z,0
2017-02-16T02:03:39.256Z,0
2017-02-16T02:04:26.643Z,0
2017-02-16T02:05:15.641Z,0
2017-02-16T02:06:03.972Z,0
2017-02-16T02:06:52.343Z,0
2017-02-16T02:07:41.188Z,0
2017-02-16T02:08:30.102Z,0
2017-02-16T02:09:18.509Z,0
2017-02-16T02:10:07.262Z,0
2017-02-16T02:10:55.612Z,0
2017-02-16T02:11:44.416Z,0
2017-02-16T02:12:33.251Z,0
2017-02-16T02:13:21.813Z,0
2017-02-16T02:14:10.685Z,0
2017-02-16T02:14:58.829Z,0
2017-02-16T02:15:47.480Z,0
2017-02-16T02:16:36.304Z,0
2017-02-16T02:17:25.113Z,0
2017-02-16T02:18:13.117Z,0
2017-02-16T02:19:01.684Z,0
2017-02-16T02:19:44.732Z,0
2017-02-16T02:20:25.225Z,0
2017-02-16T02:21:05.555Z,0
2017-02-16T02:21:45.918Z,0
2017-02-16T02:22:26.392Z,0
2017-02-16T02:23:08.731Z,0
2017-02-16T02:23:49.087Z,0
2017-02-16T02:24:29.494Z,0
2017-02-16T02:25:09.909Z,0
2017-02-16T02:25:50.276Z,0
2017-02-16T02:26:30.712Z,0
2017-02-16T02:27:11.737Z,0
2017-02-16T02:27:52.116Z,0
2017-02-16T02:28:33.399Z,0
2017-02-16T02:29:13.761Z,0
2017-02-16T02:29:54.133Z,0
2017-02-16T02:30:34.563Z,0
2017-02-16T02:31:14.969Z,0
2017-02-16T02:31:58.287Z,0
2017-02-16T02:32:41.124Z,0
2017-02-16T02:33:21.547Z,0
2017-02-16T02:34:03.753Z,0
2017-02-16T02:34:44.137Z,0
2017-02-16T02:35:26.388Z,0
2017-02-16T02:36:06.776Z,0
2017-02-16T02:36:47.192Z,0
2017-02-16T02:37:28.095Z,0
2017-02-16T02:38:08.542Z,0
2017-02-16T02:38:48.967Z,0
2017-02-16T02:39:30.126Z,0
2017-02-16T02:40:11.113Z,0
2017-02-16T02:42:29.167Z,0
2017-02-16T02:43:17.899Z,0
2017-02-16T02:44:06.629Z,0
2017-02-16T02:44:55.490Z,0
2017-02-16T02:45:43.635Z,0
2017-02-16T07:46:41.826Z,0
2017-02-16T07:47:30.815Z,0
2017-02-16T07:48:19.441Z,0
2017-02-16T07:49:08.023Z,0
2017-02-16T07:53:03.535Z,0
2017-02-16T07:55:41.337Z,0
2017-02-16T07:56:29.098Z,0
2017-02-16T07:57:17.343Z,0
2017-02-16T07:58:06.214Z,0
2017-02-16T07:58:54.491Z,0
2017-02-16T07:59:42.992Z,0
2017-02-16T08:00:31.762Z,0
2017-02-16T08:01:20.122Z,0
2017-02-16T08:02:08.639Z,0
2017-02-16T08:02:57.431Z,0
2017-02-16T08:03:50.642Z,0
2017-02-16T08:04:41.468Z,0
2017-02-16T08:06:42.278Z,0
2017-02-16T08:07:30.427Z,0
2017-02-16T08:08:18.988Z,0
2017-02-16T08:09:07.430Z,0
2017-02-16T08:09:57.021Z,0
2017-02-16T08:10:45.819Z,0
2017-02-16T08:11:34.333Z,0
2017-02-16T08:12:23.097Z,0
2017-02-16T08:13:11.379Z,0
2017-02-16T08:14:00.943Z,0
2017-02-16T08:14:49.819Z,0
2017-02-16T08:15:37.299Z,0
2017-02-16T08:16:25.601Z,0
2017-02-16T08:17:14.952Z,0
2017-02-16T08:18:02.592Z,0
2017-02-16T08:18:51.282Z,0
2017-02-16T08:19:39.840Z,0
2017-02-16T08:20:28.630Z,0
2017-02-16T08:21:17.180Z,0
2017-02-16T08:22:05.215Z,0
2017-02-16T08:22:54.260Z,0
2017-02-16T08:23:42.802Z,0
2017-02-16T08:24:31.069Z,0
2017-02-16T08:25:19.784Z,0
2017-02-16T08:26:08.434Z,0
2017-02-16T08:26:56.642Z,0
2017-02-16T08:27:45.296Z,0
2017-02-16T08:28:33.761Z,0
2017-02-16T08:29:22.437Z,0
2017-02-16T08:30:11.250Z,0
2017-02-16T08:30:59.708Z,0
2017-02-16T08:31:48.306Z,0
2017-02-16T08:32:37.108Z,0
2017-02-16T08:33:25.477Z,0
2017-02-16T08:34:13.989Z,0
2017-02-16T08:35:02.650Z,0
2017-02-16T08:38:56.538Z,0
2017-02-16T08:41:16.268Z,0
2017-02-16T08:42:04.701Z,0
2017-02-16T08:42:53.708Z,0
2017-02-16T08:43:41.826Z,0
2017-02-16T08:47:53.629Z,0
2017-02-16T08:48:42.840Z,0
2017-02-16T08:49:31.054Z,0
2017-02-16T08:50:19.537Z,0
2017-02-16T08:51:08.485Z,0
2017-02-16T08:51:56.680Z,0
2017-02-16T08:52:45.339Z,0
2017-02-16T08:53:34.289Z,0
2017-02-16T08:54:22.497Z,0
2017-02-16T08:55:11.301Z,0
2017-02-16T09:00:36.111Z,0
2017-02-16T09:37:08.988Z,0
2017-02-16T09:48:49.501Z,0
2017-02-16T09:49:37.758Z,0
2017-02-16T10:48:19.964Z,0
2017-02-16T10:49:05.253Z,0
2017-02-16T10:53:15.703Z,0
2017-02-16T10:54:04.554Z,0
2017-02-16T10:54:52.870Z,0
2017-02-16T10:55:41.409Z,0
2017-02-16T10:56:30.178Z,0
2017-02-16T10:57:18.385Z,0
2017-02-16T10:58:07.521Z,0
2017-02-16T10:58:55.524Z,0
2017-02-16T10:59:45.163Z,0
2017-02-16T11:00:33.478Z,0
2017-02-16T11:01:22.285Z,0
2017-02-16T11:02:10.457Z,0
2017-02-16T11:02:58.978Z,0
2017-02-16T11:03:47.569Z,0
2017-02-16T11:04:33.560Z,0
2017-02-16T11:05:22.452Z,0
2017-02-16T11:06:10.825Z,0
2017-02-16T11:24:08.053Z,1007.17
2017-02-16T11:24:57.573Z,1007.17
2017-02-16T11:25:45.514Z,1007.16
2017-02-16T11:26:34.332Z,1007.11
2017-02-16T11:27:22.336Z,1007.14
2017-02-16T11:28:11.270Z,1007.13
2017-02-16T11:28:59.588Z,1007.17
2017-02-16T11:29:47.878Z,1007.14
2017-02-16T11:30:36.325Z,1007.13
2017-02-16T11:31:24.452Z,1007.14
2017-02-16T11:32:09.008Z,1007.09
2017-02-16T11:34:46.235Z,1007.04
2017-02-16T11:35:34.751Z,1007.04
2017-02-16T11:37:51.922Z,1007
2017-02-16T11:38:39.259Z,1006.98
2017-02-16T11:39:27.805Z,1006.96
2017-02-16T11:40:16.768Z,1006.98
2017-02-16T11:41:04.969Z,1006.94
2017-02-16T11:41:46.355Z,1006.95
2017-02-16T11:42:27.542Z,1006.92
2017-02-16T11:43:10.693Z,1006.92
2017-02-16T11:43:51.204Z,1006.92
2017-02-16T11:44:34.170Z,1006.84
2017-02-16T11:45:19.343Z,1006.84
2017-02-16T11:46:01.329Z,1006.84
2017-02-16T11:46:44.439Z,1006.8
2017-02-16T11:47:24.892Z,1006.79
2017-02-16T11:48:06.057Z,1006.74
2017-02-16T11:48:48.952Z,1006.75
2017-02-16T11:49:29.400Z,1006.72
2017-02-16T13:06:22.564Z,1005.68
2017-02-16T13:07:12.009Z,1005.69
2017-02-16T13:08:00.548Z,1005.66
2017-02-16T13:08:49.479Z,1005.63
2017-02-16T13:09:37.323Z,1005.6
2017-02-16T13:10:26.324Z,1005.59
2017-02-16T13:11:14.779Z,1005.57
2017-02-16T13:12:03.989Z,1005.58
2017-02-16T13:12:52.649Z,1005.57
2017-02-16T13:13:41.117Z,1005.55
2017-02-16T13:14:29.709Z,1005.54
2017-02-16T13:15:18.195Z,1005.54
2017-02-16T13:16:07.014Z,1005.53
2017-02-16T13:16:55.713Z,1005.51
2017-02-16T13:17:44.666Z,1005.51
2017-02-16T13:18:32.813Z,1005.47
2017-02-16T13:19:21.619Z,1005.48
2017-02-16T13:20:10.427Z,1005.48
2017-02-16T13:20:59.047Z,1005.45
2017-02-16T13:21:47.646Z,1005.46
2017-02-16T13:22:35.935Z,1005.49
2017-02-16T13:23:24.690Z,1005.45
2017-02-16T13:24:13.180Z,1005.46
2017-02-16T13:25:02.591Z,1005.48
2017-02-16T13:25:50.847Z,1005.43
2017-02-16T13:26:39.456Z,1005.38
2017-02-16T13:27:28.525Z,1005.39
2017-02-16T13:28:16.891Z,1005.37
2017-02-16T13:29:06.025Z,1005.37
2017-02-16T13:29:50.466Z,1005.34
2017-02-16T13:30:33.501Z,1005.34
2017-02-16T13:31:14.792Z,1005.35
2017-02-16T13:31:55.889Z,1005.29
2017-02-16T13:32:36.378Z,1005.3
2017-02-16T13:33:19.313Z,1005.3
2017-02-16T13:33:59.797Z,1005.31
2017-02-16T13:34:40.948Z,1005.31
2017-02-16T13:35:21.335Z,1005.28
2017-02-16T13:36:01.758Z,1005.25
2017-02-16T13:36:43.499Z,1005.27
2017-02-16T13:37:23.616Z,1005.25
2017-02-16T13:38:04.163Z,1005.26
2017-02-16T13:38:44.537Z,1005.25
2017-02-16T13:39:25.070Z,1005.21
2017-02-16T13:40:06.624Z,1005.19
2017-02-16T13:40:47.786Z,1005.18
2017-02-16T13:41:28.312Z,1005.16
2017-02-16T13:42:08.791Z,1005.16
2017-02-16T13:42:49.290Z,1005.15
2017-02-16T13:43:29.787Z,1005.17
2017-02-16T13:44:11.504Z,1005.17
2017-02-16T13:44:52.388Z,1005.19
2017-02-16T13:45:32.914Z,1005.18
2017-02-16T13:46:14.007Z,1005.17
2017-02-16T13:46:56.036Z,1005.19
2017-02-16T13:47:39.315Z,1005.22
2017-02-16T13:48:19.854Z,1005.22
2017-02-16T13:49:01.237Z,1005.17
2017-02-16T13:49:41.677Z,1005.19
2017-02-16T13:50:22.075Z,1005.23
2017-02-16T13:51:02.516Z,1005.19
2017-02-16T13:51:43.009Z,1005.24
2017-02-16T13:52:23.740Z,1005.2
2017-02-16T13:53:04.903Z,1005.16
2017-02-16T13:53:46.141Z,1005.2
2017-02-16T13:54:26.742Z,1005.16
2017-02-16T13:58:19.784Z,1005.17
2017-02-16T13:59:07.664Z,1005.13
2017-02-16T13:59:56.390Z,1005.14
2017-02-16T14:00:45.066Z,1005.11
2017-02-16T14:01:33.211Z,1005.14
2017-02-16T14:02:22.045Z,1005.08
2017-02-16T14:03:10.767Z,1005.11
2017-02-16T14:03:59.629Z,1005.1
2017-02-16T14:04:48.532Z,1005.05
2017-02-16T14:05:36.941Z,1005.03
2017-02-16T14:06:26.069Z,1005.01
2017-02-16T14:07:14.357Z,1005
2017-02-16T14:08:03.534Z,1005
2017-02-16T14:08:52.262Z,1005.04
2017-02-16T14:09:40.868Z,1004.99
2017-02-16T14:10:29.229Z,1004.98
2017-02-16T14:11:17.905Z,1004.96
2017-02-16T14:12:06.632Z,1004.99
2017-02-16T14:12:55.197Z,1004.99
2017-02-16T14:13:43.568Z,1004.95
2017-02-16T14:14:32.252Z,1004.96
2017-02-16T14:15:20.866Z,1004.97
2017-02-16T14:16:09.879Z,1004.98
2017-02-16T14:16:58.701Z,1004.94
2017-02-16T14:17:46.820Z,1004.89
2017-02-16T14:18:35.353Z,1004.89
2017-02-16T14:19:24.569Z,1004.87
2017-02-16T14:20:12.832Z,1004.9
2017-02-16T14:21:01.538Z,1004.83
2017-02-16T14:21:50.685Z,1004.83
2017-02-16T14:22:38.736Z,1004.83
2017-02-16T14:23:27.438Z,1004.83
2017-02-16T14:24:16.136Z,1004.83
2017-02-16T14:25:04.745Z,1004.83
2017-02-16T14:25:53.638Z,1004.83
2017-02-16T14:26:36.834Z,1004.83
2017-02-16T14:27:17.284Z,1004.83
2017-02-16T14:27:57.656Z,1004.83
2017-02-16T14:28:39.639Z,1004.83
2017-02-16T14:29:20.838Z,1004.83
2017-02-16T14:30:01.184Z,1004.83
2017-02-16T14:30:42.570Z,1004.83
2017-02-16T14:31:22.963Z,1004.83
2017-02-16T14:32:03.544Z,1004.83
2017-02-16T14:32:44.068Z,1004.83
2017-02-16T14:33:24.437Z,1004.83
2017-02-16T14:34:05.467Z,1004.83
2017-02-16T14:34:46.029Z,1004.83
2017-02-16T14:35:26.779Z,1004.83
2017-02-16T14:36:07.216Z,1004.83
2017-02-16T14:36:47.591Z,1004.83
2017-02-16T14:37:28.005Z,1004.83
2017-02-16T20:05:09.021Z,1004.17
2017-02-16T20:14:13.678Z,1004.16
2017-02-16T20:15:02.528Z,1004.11
2017-02-16T20:16:01.469Z,1004.11
2017-02-16T20:16:54.413Z,1004.07
2017-02-16T20:18:00.186Z,1004.07
2017-02-16T20:30:02.468Z,1004.08
2017-02-16T20:30:46.735Z,1004.04
2017-02-16T20:31:27.318Z,1004.08
2017-02-16T20:32:07.856Z,1004.03
2017-02-16T20:32:48.296Z,1004.04
2017-02-16T20:33:28.791Z,1004.06
2017-02-16T20:34:09.230Z,1004.01
2017-02-16T20:34:49.658Z,1004
2017-02-16T20:35:30.138Z,1004
2017-02-16T20:36:10.562Z,1004.02
2017-02-16T20:36:51.036Z,1004.06
2017-02-16T20:37:31.495Z,1004.03
2017-02-16T20:38:11.920Z,1004.01
2017-02-16T20:38:52.370Z,1004.01
2017-02-16T20:39:32.842Z,1004.05
2017-02-16T20:40:13.299Z,1004
2017-02-16T20:40:53.819Z,1004.02
2017-02-16T20:41:34.247Z,1004.01
2017-02-16T20:42:14.666Z,1004.01
2017-02-16T20:42:55.152Z,1004
2017-02-16T20:43:35.620Z,1004.02
2017-02-16T20:44:16.070Z,1004.01
2017-02-16T20:44:56.540Z,1004.06
2017-02-16T20:45:37.024Z,1004.07
2017-02-16T20:46:17.429Z,1004.08
2017-02-16T20:46:57.892Z,1004.09
2017-02-16T20:47:38.329Z,1004.08
2017-02-16T20:48:18.788Z,1004.09
2017-02-16T20:48:59.273Z,1004.09
2017-02-16T20:49:39.728Z,1004.08
2017-02-16T20:50:20.185Z,1004.09
2017-02-16T20:51:00.676Z,1004.09
2017-02-16T20:51:41.121Z,1004.07
2017-02-16T20:52:21.558Z,1004.07
2017-02-16T20:53:02.010Z,1004.05
2017-02-16T20:53:42.487Z,1004.04
2017-02-16T20:54:22.904Z,1004.02
2017-02-16T20:55:03.396Z,1004.04
2017-02-16T20:55:43.804Z,1004.03
2017-02-16T20:56:24.262Z,1004.01
2017-02-16T20:57:04.705Z,1003.98
2017-02-16T20:57:45.166Z,1003.97
2017-02-16T20:58:25.666Z,1003.98
2017-02-16T20:59:06.102Z,1003.95
2017-02-16T20:59:46.555Z,1003.93
2017-02-16T21:00:27.005Z,1003.95
2017-02-16T21:01:07.506Z,1003.91
2017-02-16T21:01:47.933Z,1003.89
2017-02-16T21:02:28.362Z,1003.91
2017-02-16T21:03:08.815Z,1003.87
2017-02-16T21:03:49.285Z,1003.87
2017-02-16T21:04:29.743Z,1003.88
2017-02-16T21:05:11.131Z,1003.83
2017-02-16T21:05:51.593Z,1003.85
2017-02-16T21:06:32.005Z,1003.81
2017-02-16T21:07:12.456Z,1003.82
2017-02-16T21:07:52.947Z,1003.82
2017-02-16T21:08:33.399Z,1003.78
2017-02-16T21:09:13.812Z,1003.79
2017-02-16T21:09:54.334Z,1003.77
2017-02-16T21:10:35.045Z,1003.79
2017-02-16T21:11:15.449Z,1003.8
2017-02-16T21:11:55.902Z,1003.76
2017-02-16T21:12:36.556Z,1003.79
2017-02-16T21:13:17.002Z,1003.73
2017-02-16T21:13:57.506Z,1003.7
2017-02-16T21:14:37.942Z,1003.72
2017-02-16T21:15:18.887Z,1003.61
2017-02-16T21:15:59.495Z,1003.69
2017-02-16T21:16:39.956Z,1003.66
2017-02-16T21:17:20.409Z,1003.69
2017-02-16T21:18:00.898Z,1003.69
2017-02-16T21:18:41.360Z,1003.62
2017-02-16T21:19:21.801Z,1003.65
2017-02-16T21:20:03.147Z,1003.63
2017-02-16T21:20:43.612Z,1003.65
2017-02-16T21:21:24.105Z,1003.63
2017-02-16T21:22:05.787Z,1003.67
2017-02-16T21:22:46.295Z,1003.64
2017-02-16T21:23:26.849Z,1003.63
2017-02-16T21:24:07.300Z,1003.61
2017-02-16T21:24:47.776Z,1003.6
2017-02-16T21:25:28.224Z,1003.6
2017-02-16T21:26:08.654Z,1003.56
2017-02-16T21:26:49.431Z,1003.59
2017-02-16T21:27:30.191Z,1003.59
2017-02-16T21:28:10.656Z,1003.57
2017-02-16T21:28:51.147Z,1003.57
2017-02-16T21:29:31.680Z,1003.51
2017-02-16T21:30:12.072Z,1003.52
2017-02-16T21:30:52.511Z,1003.49
2017-02-16T21:31:33.103Z,1003.5
2017-02-16T21:32:13.645Z,1003.46
2017-02-16T21:32:54.235Z,1003.44
2017-02-16T21:33:34.533Z,1003.49
2017-02-16T21:34:15.529Z,1003.5
2017-02-16T21:34:56.816Z,1003.46
2017-02-16T21:35:37.254Z,1003.49
2017-02-16T21:36:17.728Z,1003.49
2017-02-16T21:36:58.303Z,1003.49
2017-02-16T21:37:38.728Z,1003.49
2017-02-16T21:38:19.167Z,1003.51
2017-02-16T21:38:59.753Z,1003.53
2017-02-16T21:39:40.248Z,1003.55
2017-02-16T21:40:20.678Z,1003.58
2017-02-16T21:41:01.157Z,1003.57
2017-02-16T21:41:41.639Z,1003.56
2017-02-16T21:42:22.115Z,1003.57
2017-02-16T21:43:02.530Z,1003.58
2017-02-16T21:43:42.987Z,1003.56
2017-02-16T21:44:23.544Z,1003.57
2017-02-16T21:45:04.002Z,1003.62
2017-02-16T21:45:44.447Z,1003.57
2017-02-16T21:46:24.936Z,1003.61
2017-02-16T21:47:06.329Z,1003.61
2017-02-16T21:47:46.783Z,1003.6
2017-02-16T21:48:27.222Z,1003.6
2017-02-16T21:49:07.703Z,1003.62
2017-02-16T21:49:48.154Z,1003.65
2017-02-16T21:50:28.576Z,1003.63
2017-02-16T21:51:09.036Z,1003.66
2017-02-16T21:51:49.470Z,1003.64
2017-02-16T21:52:29.911Z,1003.63
2017-02-16T21:53:10.402Z,1003.65
2017-02-16T21:53:50.857Z,1003.63
2017-02-16T21:54:31.351Z,1003.6
2017-02-16T21:55:11.845Z,1003.63
2017-02-16T21:55:52.353Z,1003.62
2017-02-16T21:56:32.796Z,1003.58
2017-02-16T21:57:13.278Z,1003.6
2017-02-16T21:57:53.797Z,1003.61
2017-02-16T21:58:34.231Z,1003.59
2017-02-16T21:59:14.659Z,1003.63
2017-02-16T21:59:55.089Z,1003.56
2017-02-16T22:00:35.566Z,1003.62
2017-02-16T22:01:15.967Z,1003.6
2017-02-16T22:01:56.405Z,1003.56
2017-02-16T22:02:36.852Z,1003.55
2017-02-16T22:03:17.347Z,1003.52
2017-02-16T22:03:57.831Z,1003.56
2017-02-16T22:04:38.271Z,1003.52
2017-02-16T22:05:18.698Z,1003.51
2017-02-16T22:05:59.195Z,1003.52
2017-02-16T22:06:39.627Z,1003.48
2017-02-16T22:07:20.078Z,1003.53
2017-02-16T22:08:00.523Z,1003.52
2017-02-16T22:08:40.913Z,1003.46
2017-02-16T22:09:21.377Z,1003.5
2017-02-16T22:10:01.816Z,1003.48
2017-02-16T22:10:42.264Z,1003.52
2017-02-16T22:11:22.762Z,1003.52
2017-02-16T22:12:03.181Z,1003.53
2017-02-16T22:12:43.666Z,1003.54
2017-02-16T22:13:24.076Z,1003.53
2017-02-16T22:14:04.597Z,1003.53
2017-02-16T22:14:45.005Z,1003.56
2017-02-16T22:15:25.487Z,1003.55
2017-02-16T22:16:06.022Z,1003.58
2017-02-16T22:16:46.653Z,1003.6
2017-02-16T22:17:27.128Z,1003.55
2017-02-16T22:18:07.567Z,1003.57
2017-02-16T22:18:48.008Z,1003.56
2017-02-16T22:19:28.519Z,1003.53
2017-02-16T22:20:08.958Z,1003.52
2017-02-16T22:20:49.415Z,1003.53
2017-02-16T22:21:29.869Z,1003.52
2017-02-16T22:22:10.309Z,1003.55
2017-02-16T22:22:50.753Z,1003.57
2017-02-16T22:23:31.183Z,1003.51
2017-02-16T22:24:13.769Z,1003.52
2017-02-16T22:24:54.210Z,1003.48
2017-02-16T22:25:34.738Z,1003.5
2017-02-16T22:26:15.192Z,1003.49
2017-02-16T22:26:55.649Z,1003.5
2017-02-16T22:27:36.118Z,1003.43
2017-02-16T22:28:16.555Z,1003.49
2017-02-16T22:28:56.972Z,1003.45
2017-02-16T22:29:37.537Z,1003.44
2017-02-16T22:30:17.974Z,1003.45
2017-02-16T22:30:58.420Z,1003.38
2017-02-16T22:31:38.879Z,1003.42
2017-02-16T22:32:19.319Z,1003.41
2017-02-16T22:32:59.762Z,1003.41
2017-02-16T22:33:40.275Z,1003.38
2017-02-16T22:34:20.723Z,1003.4
2017-02-16T22:35:01.191Z,1003.43
2017-02-16T22:35:41.611Z,1003.38
2017-02-16T22:36:22.099Z,1003.38
2017-02-16T22:37:02.512Z,1003.37
2017-02-16T22:37:42.998Z,1003.35
2017-02-16T22:38:23.425Z,1003.31
2017-02-16T22:39:03.883Z,1003.35
2017-02-16T22:39:44.323Z,1003.3
2017-02-16T22:40:24.961Z,1003.29
2017-02-16T22:41:05.411Z,1003.27
2017-02-16T22:41:45.866Z,1003.24
2017-02-16T22:42:26.400Z,1003.26
2017-02-16T22:43:06.832Z,1003.23
2017-02-16T22:43:47.255Z,1003.2
2017-02-16T22:44:27.712Z,1003.21
2017-02-16T22:45:08.177Z,1003.2
2017-02-16T22:45:48.626Z,1003.2
2017-02-16T22:46:29.044Z,1003.21
2017-02-16T22:47:09.500Z,1003.19
2017-02-16T22:47:49.988Z,1003.17
2017-02-16T22:48:30.729Z,1003.18
2017-02-16T22:49:11.505Z,1003.12
2017-02-16T22:49:51.972Z,1003.17
2017-02-16T22:50:32.457Z,1003.2
2017-02-16T22:51:12.913Z,1003.2
2017-02-16T22:51:53.349Z,1003.2
2017-02-16T22:52:33.890Z,1003.18
2017-02-16T22:53:14.306Z,1003.17
2017-02-16T22:53:54.805Z,1003.21
2017-02-16T22:54:35.247Z,1003.22
2017-02-16T22:55:15.705Z,1003.26
2017-02-16T22:55:56.152Z,1003.29
2017-02-16T22:56:36.669Z,1003.29
2017-02-16T22:57:17.196Z,1003.32
2017-02-16T22:57:57.718Z,1003.26
2017-02-16T22:58:38.860Z,1003.27
2017-02-16T22:59:19.341Z,1003.27
2017-02-16T22:59:59.822Z,1003.28
2017-02-16T23:00:40.331Z,1003.27
2017-02-16T23:01:21.027Z,1003.23
2017-02-16T23:02:01.554Z,1003.21
2017-02-16T23:02:42.111Z,1003.25
2017-02-16T23:03:22.516Z,1003.26
2017-02-16T23:04:03.205Z,1003.25
2017-02-16T23:04:43.870Z,1003.29
2017-02-16T23:05:24.323Z,1003.28
2017-02-16T23:06:04.785Z,1003.28
2017-02-16T23:06:45.234Z,1003.25
2017-02-16T23:07:25.734Z,1003.25
2017-02-16T23:08:06.193Z,1003.28
2017-02-16T23:08:46.671Z,1003.27
2017-02-16T23:09:27.133Z,1003.31
2017-02-16T23:10:07.580Z,1003.26
2017-02-16T23:10:48.119Z,1003.26
2017-02-16T23:11:28.576Z,1003.28
2017-02-16T23:12:08.992Z,1003.28
2017-02-16T23:12:49.437Z,1003.23
2017-02-16T23:13:29.917Z,1003.26
2017-02-16T23:14:10.373Z,1003.21
2017-02-16T23:14:50.799Z,1003.22
2017-02-16T23:15:31.279Z,1003.25
2017-02-16T23:16:11.753Z,1003.21
2017-02-16T23:16:52.233Z,1003.25
2017-02-16T23:17:32.711Z,1003.25
2017-02-16T23:18:13.163Z,1003.27
2017-02-16T23:18:53.616Z,1003.25
2017-02-16T23:19:34.138Z,1003.27
2017-02-16T23:20:14.568Z,1003.29
2017-02-16T23:20:55.021Z,1003.28
2017-02-16T23:21:35.515Z,1003.31
2017-02-16T23:22:15.985Z,1003.3
2017-02-16T23:22:56.437Z,1003.29
2017-02-16T23:23:36.907Z,1003.29
2017-02-16T23:24:17.344Z,1003.27
2017-02-16T23:24:57.853Z,1003.25
2017-02-16T23:25:38.323Z,1003.22
2017-02-16T23:26:18.760Z,1003.2
2017-02-16T23:26:59.353Z,1003.2
2017-02-16T23:27:39.755Z,1003.19
2017-02-16T23:28:20.234Z,1003.19
2017-02-16T23:29:00.739Z,1003.19
2017-02-16T23:29:41.174Z,1003.18
2017-02-16T23:30:21.757Z,1003.19
2017-02-16T23:31:02.227Z,1003.19
2017-02-16T23:31:42.678Z,1003.23
2017-02-16T23:32:23.072Z,1003.19
2017-02-16T23:33:03.543Z,1003.21
2017-02-16T23:33:44.072Z,1003.25
2017-02-16T23:34:24.526Z,1003.18
2017-02-16T23:35:04.979Z,1003.21
2017-02-16T23:35:45.525Z,1003.19
2017-02-16T23:36:25.969Z,1003.17
2017-02-16T23:37:06.403Z,1003.23
2017-02-16T23:37:47.033Z,1003.16
2017-02-16T23:38:28.119Z,1003.2
2017-02-16T23:39:08.894Z,1003.19
2017-02-16T23:39:49.436Z,1003.14
2017-02-16T23:40:30.300Z,1003.15
2017-02-16T23:41:10.867Z,1003.13
2017-02-16T23:41:51.386Z,1003.14
2017-02-16T23:42:31.979Z,1003.1
2017-02-16T23:43:12.605Z,1003.14
2017-02-16T23:43:52.997Z,1003.12
2017-02-16T23:44:33.440Z,1003.12
2017-02-16T23:45:13.876Z,1003.14
2017-02-16T23:45:54.457Z,1003.15
2017-02-16T23:46:34.972Z,1003.13
2017-02-16T23:47:15.448Z,1003.14
2017-02-16T23:47:55.960Z,1003.1
2017-02-16T23:48:36.440Z,1003.13
2017-02-16T23:49:16.869Z,1003.12
2017-02-16T23:49:57.342Z,1003.11
2017-02-16T23:50:37.823Z,1003.07
2017-02-16T23:51:18.211Z,1003.1
2017-02-16T23:51:58.665Z,1003.06
2017-02-16T23:52:39.107Z,1003.02
2017-02-16T23:53:19.598Z,1002.99
2017-02-16T23:54:00.067Z,1002.97
2017-02-16T23:54:40.492Z,1002.99
2017-02-16T23:55:20.974Z,1002.96
2017-02-16T23:56:01.465Z,1002.96
2017-02-16T23:56:41.869Z,1002.94
2017-02-16T23:57:22.341Z,1002.96
2017-02-16T23:58:02.778Z,1002.97
2017-02-16T23:58:43.273Z,1002.98
2017-02-16T23:59:23.713Z,1002.95
